Delta Lindsey — WDF5519 — position and weather

sailwx.info

Track history (hours):
 
Tides and Currents Weather Stations Pressure Air Temp Water Temp Dewpoint Dewpoint Depression Visibility Wind Speed Wind Dir Waves Ship Positions

Delta Lindsey

Owner: Baydelta Navigation, Inc., San Francisco, CA. More information available from US FCC via Universal Licensing System and Coast Guard Vessel Documentation Center.

Last reported at 2018-Feb-18 07:00 UTC. Time now 2018-Feb-18 07:20 UTC.
Position N 37°54' W 122°22'.

MMSI: 233246442.

Date/timePositionNaut miles runAvg speedWind from/ knotsBaromVisibWave heightAir tempDewpointWater temp
2018-Feb-18 07:00N 37°54' W 122°22'0 0.0
2018-Feb-18 06:30N 37°54' W 122°22'0 0.0
2018-Feb-18 06:00N 37°54' W 122°22'0 0.0
2018-Feb-18 05:30N 37°54' W 122°22'0 0.0
2018-Feb-18 05:00N 37°54' W 122°22'0 0.0
2018-Feb-18 04:30N 37°54' W 122°22'0 0.0
2018-Feb-18 04:00N 37°54' W 122°22'0 0.0
2018-Feb-18 03:30N 37°54' W 122°22'0 0.0
2018-Feb-18 03:00N 37°54' W 122°22'0 0.0
2018-Feb-18 02:30N 37°54' W 122°22'0 0.0
2018-Feb-18 02:00N 37°54' W 122°22'0 0.0
2018-Feb-18 01:27N 37°54' W 122°22'0 0.0
2018-Feb-18 01:00N 37°54' W 122°22'0 0.0
2018-Feb-18 00:30N 37°54' W 122°22'0 0.0
2018-Feb-18 00:00N 37°54' W 122°22'0 0.2
2018-Feb-17 23:30N 37°54' W 122°22'0 0.8
2018-Feb-17 23:00N 37°54' W 122°23'2 4.7
2018-Feb-17 22:30N 37°52' W 122°24'4 8.6
2018-Feb-17 22:00N 37°48' W 122°22'4 8.7
2018-Feb-17 21:30N 37°44' W 122°20'1 1.1
2018-Feb-17 21:00N 37°44' W 122°20'0 0.0
2018-Feb-17 20:30N 37°44' W 122°20'0 0.0
2018-Feb-17 20:00N 37°44' W 122°20'0 0.0
2018-Feb-17 19:30N 37°44' W 122°20'0 0.0
2018-Feb-17 18:57N 37°44' W 122°20'0 0.0
2018-Feb-17 18:30N 37°44' W 122°20'0 0.0
2018-Feb-17 17:57N 37°44' W 122°20'0 0.0
2018-Feb-17 17:30N 37°44' W 122°20'0 0.0
2018-Feb-17 17:00N 37°44' W 122°20'0 0.0
2018-Feb-17 16:30N 37°44' W 122°20'0 0.2
2018-Feb-17 16:00N 37°44' W 122°20'0 0.2
2018-Feb-17 15:30N 37°44' W 122°20'1 2.2
2018-Feb-17 15:01N 37°45' W 122°20'4 8.6
2018-Feb-17 14:30N 37°49' W 122°21'0 0.5
2018-Feb-17 14:00N 37°49' W 122°22'2 4.4
2018-Feb-17 13:30N 37°51' W 122°23'3 6.6
2018-Feb-17 13:00N 37°54' W 122°23'1 1.4
2018-Feb-17 12:29N 37°54' W 122°22'0 0.0
2018-Feb-17 11:59N 37°54' W 122°22'0 0.0
2018-Feb-17 11:29N 37°54' W 122°22'0 0.0
2018-Feb-17 10:59N 37°54' W 122°22'3 5.3
2018-Feb-17 10:31N 37°55' W 122°25'1 1.5
2018-Feb-17 10:00N 37°56' W 122°25'0 0.2
2018-Feb-17 09:30N 37°55' W 122°25'2 4.7
2018-Feb-17 09:00N 37°54' W 122°22'0 0.0
2018-Feb-17 08:30N 37°54' W 122°22'0 0.1
2018-Feb-17 08:00N 37°54' W 122°22'0 0.1
2018-Feb-17 07:30N 37°54' W 122°22'0 0.1
2018-Feb-17 07:00N 37°54' W 122°22'0 0.1
2018-Feb-17 06:30N 37°54' W 122°22'0 0.1
2018-Feb-17 06:00N 37°54' W 122°22'0 0.0
2018-Feb-17 05:30N 37°54' W 122°22'0 0.1
2018-Feb-17 05:00N 37°54' W 122°22'0 0.0
2018-Feb-17 04:30N 37°54' W 122°22'0 0.1
2018-Feb-17 04:00N 37°54' W 122°22'2 4.6
2018-Feb-17 03:30N 37°53' W 122°24'510.7
2018-Feb-17 03:00N 37°48' W 122°21'2 4.5
2018-Feb-17 02:31N 37°47' W 122°18'0 0.4
2018-Feb-17 02:01N 37°48' W 122°18'1 2.0
2018-Feb-17 01:30N 37°48' W 122°19'0 0.1
2018-Feb-17 01:00N 37°48' W 122°19'1 1.4
2018-Feb-17 00:30N 37°48' W 122°18'1 2.7
2018-Feb-17 00:00N 37°48' W 122°20'4 8.6
2018-Feb-16 23:30N 37°51' W 122°24'3 6.3
2018-Feb-16 23:00N 37°54' W 122°23'1 2.2
2018-Feb-16 22:30N 37°55' W 122°22'0 0.6
2018-Feb-16 22:00N 37°55' W 122°22'1 1.7
2018-Feb-16 21:30N 37°54' W 122°22'0 0.3
2018-Feb-16 20:58N 37°54' W 122°22'0 0.1
2018-Feb-16 20:31N 37°54' W 122°22'0 0.1
2018-Feb-16 20:01N 37°54' W 122°22'0 0.1
2018-Feb-16 19:28N 37°54' W 122°22'0 0.1
2018-Feb-16 19:01N 37°54' W 122°22'0 0.1
2018-Feb-16 18:31N 37°54' W 122°22'0 0.0
2018-Feb-16 18:01N 37°54' W 122°22'0 0.0
2018-Feb-16 17:28N 37°54' W 122°22'0 0.1
2018-Feb-16 16:58N 37°54' W 122°22'0 0.1
2018-Feb-16 16:31N 37°54' W 122°22'0 0.0
2018-Feb-16 16:00N 37°54' W 122°22'0 0.1
2018-Feb-16 15:30N 37°54' W 122°22'2 4.5
2018-Feb-16 15:00N 37°53' W 122°24'510.5
2018-Feb-16 14:31N 37°48' W 122°22'4 8.4
2018-Feb-16 14:00N 37°44' W 122°20'2 3.2
2018-Feb-16 13:31N 37°45' W 122°22'5 9.1
2018-Feb-16 13:00N 37°49' W 122°24'510.9
2018-Feb-16 12:31N 37°54' W 122°27'611.8
2018-Feb-16 12:01N 37°60' W 122°25'611.0
2018-Feb-16 11:31N 38°03' W 122°19'7 9.6
2018-Feb-16 10:50N 38°03' W 122°11'2 7.3
2018-Feb-16 10:30N 38°02' W 122°08'0 0.6
2018-Feb-16 10:01N 38°02' W 122°08'0 0.6
2018-Feb-16 09:30N 38°02' W 122°08'3 5.5
2018-Feb-16 08:58N 38°03' W 122°11'612.1
2018-Feb-16 08:30N 38°03' W 122°18'611.9
2018-Feb-16 08:00N 38°00' W 122°25'510.9
2018-Feb-16 07:31N 37°55' W 122°24'2 3.2
2018-Feb-16 07:00N 37°54' W 122°22'0 0.0
2018-Feb-16 06:30N 37°54' W 122°22'0 0.0
2018-Feb-16 06:00N 37°54' W 122°22'0 0.0
2018-Feb-16 05:30N 37°54' W 122°22'0 0.0
2018-Feb-16 05:00N 37°54' W 122°22'0 0.0
2018-Feb-16 04:30N 37°54' W 122°22'0 0.0
2018-Feb-16 04:00N 37°54' W 122°22'0 0.0
2018-Feb-16 03:30N 37°54' W 122°22'0 0.0
2018-Feb-16 03:00N 37°54' W 122°22'1 1.9
2018-Feb-16 02:30N 37°54' W 122°24'3 6.6
2018-Feb-16 02:00N 37°51' W 122°23'5 9.2
2018-Feb-16 01:30N 37°48' W 122°19'0 0.2
2018-Feb-16 01:00N 37°48' W 122°19'0 0.1
2018-Feb-16 00:30N 37°48' W 122°19'0 0.1
2018-Feb-16 00:00N 37°48' W 122°19'1 1.7
2018-Feb-15 23:30N 37°48' W 122°20'4 8.2
2018-Feb-15 23:00N 37°51' W 122°24'3 6.4
2018-Feb-15 22:30N 37°54' W 122°23'1 1.5
2018-Feb-15 22:00N 37°54' W 122°22'0 0.0
2018-Feb-15 21:30N 37°54' W 122°22'0 0.3
2018-Feb-15 21:00N 37°54' W 122°22'3 5.3
2018-Feb-15 20:30N 37°55' W 122°26'0 1.0
2018-Feb-15 20:00N 37°54' W 122°26'1 1.4
2018-Feb-15 19:30N 37°54' W 122°26'3 5.0
2018-Feb-15 18:59N 37°54' W 122°22'0 0.0
2018-Feb-15 18:29N 37°54' W 122°22'0 0.0
2018-Feb-15 17:59N 37°54' W 122°22'0 0.0
2018-Feb-15 17:29N 37°54' W 122°22'2 4.2
2018-Feb-15 16:59N 37°55' W 122°25'0 0.0
2018-Feb-15 16:29N 37°55' W 122°25'0 0.0
2018-Feb-15 15:59N 37°55' W 122°25'0 0.0
2018-Feb-15 15:29N 37°55' W 122°25'0 0.0
2018-Feb-15 14:53N 37°55' W 122°25'0 0.8
2018-Feb-15 14:31N 37°55' W 122°25'0 0.6
2018-Feb-15 13:58N 37°55' W 122°25'0 0.4
2018-Feb-15 13:26N 37°55' W 122°25'0 0.0
2018-Feb-15 12:59N 37°55' W 122°25'0 0.0
2018-Feb-15 12:29N 37°55' W 122°25'0 0.0
2018-Feb-15 11:50N 37°55' W 122°25'0 0.0
2018-Feb-15 11:29N 37°55' W 122°25'0 0.0
2018-Feb-15 10:59N 37°55' W 122°25'0 0.0
2018-Feb-15 10:26N 37°55' W 122°25'0 0.0
2018-Feb-15 09:59N 37°55' W 122°25'0 0.0
2018-Feb-15 09:29N 37°55' W 122°25'0 0.0
2018-Feb-15 08:53N 37°55' W 122°25'0 0.0
2018-Feb-15 08:29N 37°55' W 122°25'3 5.4
2018-Feb-15 08:00N 37°58' W 122°26'5 9.3
2018-Feb-15 07:30N 38°02' W 122°23'6 9.7
2018-Feb-15 06:56N 38°04' W 122°16'6 9.6
2018-Feb-15 06:16N 38°02' W 122°08'0 0.6
2018-Feb-15 06:00N 38°02' W 122°08'4 7.4
2018-Feb-15 05:27N 38°04' W 122°13'510.7
2018-Feb-15 05:00N 38°03' W 122°19'611.1
2018-Feb-15 04:29N 38°00' W 122°25'510.7
2018-Feb-15 03:59N 37°55' W 122°24'2 3.6
2018-Feb-15 03:27N 37°55' W 122°22'0 0.0
2018-Feb-15 02:59N 37°55' W 122°22'0 0.5
2018-Feb-15 02:30N 37°55' W 122°22'1 1.5
2018-Feb-15 02:00N 37°54' W 122°22'3 4.9
2018-Feb-15 01:29N 37°55' W 122°25'2 4.6
2018-Feb-15 01:00N 37°53' W 122°25'0 0.0
2018-Feb-15 00:30N 37°53' W 122°25'1 3.0
2018-Feb-15 00:00N 37°54' W 122°25'1 2.9
2018-Feb-14 23:30N 37°54' W 122°23'1 1.8
2018-Feb-14 23:00N 37°54' W 122°22'0 0.0
2018-Feb-14 22:30N 37°54' W 122°22'0 0.0
2018-Feb-14 22:00N 37°54' W 122°22'0 0.0
2018-Feb-14 21:30N 37°54' W 122°22'1 1.8
2018-Feb-14 21:00N 37°55' W 122°22'0 0.4
2018-Feb-14 20:30N 37°55' W 122°22'1 1.8
2018-Feb-14 20:00N 37°54' W 122°22'2 4.9
2018-Feb-14 19:30N 37°55' W 122°25'2 3.8
2018-Feb-14 19:00N 37°53' W 122°25'1 2.2
2018-Feb-14 18:30N 37°54' W 122°25'1 1.8
2018-Feb-14 18:00N 37°54' W 122°24'2 3.0
2018-Feb-14 17:30N 37°54' W 122°22'0 0.4
2018-Feb-14 17:00N 37°54' W 122°22'1 1.7
2018-Feb-14 16:30N 37°55' W 122°22'1 1.1
2018-Feb-14 16:01N 37°55' W 122°22'0 0.0
2018-Feb-14 15:30N 37°55' W 122°22'0 0.0
2018-Feb-14 15:00N 37°55' W 122°22'0 0.0
2018-Feb-14 14:30N 37°55' W 122°22'0 0.0
2018-Feb-14 14:00N 37°55' W 122°22'0 0.0
2018-Feb-14 13:30N 37°55' W 122°22'0 0.0
2018-Feb-14 13:00N 37°55' W 122°22'0 0.0
2018-Feb-14 12:30N 37°55' W 122°22'0 0.0
2018-Feb-14 12:00N 37°55' W 122°22'0 0.0
2018-Feb-14 11:31N 37°55' W 122°22'0 0.5
2018-Feb-14 11:00N 37°54' W 122°22'2 4.4
2018-Feb-14 10:30N 37°55' W 122°24'510.6
2018-Feb-14 10:00N 38°00' W 122°25'510.5
2018-Feb-14 09:30N 38°03' W 122°19'7 9.6
2018-Feb-14 08:49N 38°03' W 122°11'2 8.1
2018-Feb-14 08:30N 38°02' W 122°08'0 0.2
2018-Feb-14 08:00N 38°02' W 122°08'0 0.0
2018-Feb-14 07:30N 38°02' W 122°08'0 0.6
2018-Feb-14 06:59N 38°02' W 122°08'2 4.3
2018-Feb-14 06:30N 38°03' W 122°11'4 7.1
2018-Feb-14 06:00N 38°04' W 122°15'4 7.5
2018-Feb-14 05:30N 38°03' W 122°20'5 9.4
2018-Feb-14 05:00N 38°00' W 122°24'611.3
2018-Feb-14 04:30N 37°55' W 122°27'510.5
2018-Feb-14 04:00N 37°50' W 122°24'4 8.5
2018-Feb-14 03:30N 37°47' W 122°21'3 5.4
2018-Feb-14 03:01N 37°44' W 122°20'0 0.3
2018-Feb-14 02:30N 37°44' W 122°20'3 6.5
2018-Feb-14 02:00N 37°47' W 122°21'2 3.8
2018-Feb-14 01:30N 37°49' W 122°22'0 0.0
2018-Feb-14 01:00N 37°49' W 122°22'0 0.0
2018-Feb-14 00:30N 37°49' W 122°22'0 0.0
2018-Feb-14 00:00N 37°49' W 122°22'0 0.1
2018-Feb-13 23:30N 37°49' W 122°22'0 0.1
2018-Feb-13 23:00N 37°49' W 122°22'3 5.8
2018-Feb-13 22:30N 37°46' W 122°22'1 1.1
2018-Feb-13 22:00N 37°46' W 122°21'1 2.5
2018-Feb-13 21:30N 37°47' W 122°22'2 4.1
2018-Feb-13 21:00N 37°49' W 122°23'4 7.3
2018-Feb-13 20:30N 37°49' W 122°28'3 6.5
2018-Feb-13 20:00N 37°49' W 122°32'1 1.0
2018-Feb-13 19:30N 37°49' W 122°31'0 0.8
2018-Feb-13 19:00N 37°49' W 122°31'0 0.9
2018-Feb-13 18:30N 37°49' W 122°31'1 2.7
2018-Feb-13 18:01N 37°49' W 122°29'3 6.6
2018-Feb-13 17:30N 37°52' W 122°27'4 7.6
2018-Feb-13 17:00N 37°54' W 122°23'1 1.5
2018-Feb-13 16:30N 37°54' W 122°22'0 0.0
2018-Feb-13 15:59N 37°54' W 122°22'0 0.0
2018-Feb-13 15:29N 37°54' W 122°22'0 0.0
2018-Feb-13 14:59N 37°54' W 122°22'0 0.0
2018-Feb-13 14:29N 37°54' W 122°22'0 0.0
2018-Feb-13 13:56N 37°54' W 122°22'0 0.0
2018-Feb-13 13:29N 37°54' W 122°22'0 0.0
2018-Feb-13 12:59N 37°54' W 122°22'0 0.0
2018-Feb-13 12:29N 37°54' W 122°22'0 0.0
2018-Feb-13 11:41N 37°54' W 122°22'0 0.0
2018-Feb-13 11:20N 37°54' W 122°22'0 0.0
2018-Feb-13 10:59N 37°54' W 122°22'0 0.0
2018-Feb-13 10:23N 37°54' W 122°22'0 0.0
2018-Feb-13 09:56N 37°54' W 122°22'0 0.0
2018-Feb-13 09:29N 37°54' W 122°22'0 0.0
2018-Feb-13 08:59N 37°54' W 122°22'0 0.0
2018-Feb-13 08:29N 37°54' W 122°22'0 0.0
2018-Feb-13 07:53N 37°54' W 122°22'0 0.0
2018-Feb-13 07:29N 37°54' W 122°22'0 0.0
2018-Feb-13 06:59N 37°54' W 122°22'0 0.0
2018-Feb-13 06:31N 37°54' W 122°22'2 4.5
2018-Feb-13 06:01N 37°55' W 122°25'0 0.1
2018-Feb-13 05:30N 37°55' W 122°25'2 4.4
2018-Feb-13 05:01N 37°53' W 122°25'0 0.1
2018-Feb-13 04:30N 37°53' W 122°25'1 3.0
2018-Feb-13 04:00N 37°55' W 122°25'1 1.9
2018-Feb-13 03:30N 37°56' W 122°25'0 0.2
2018-Feb-13 03:00N 37°55' W 122°25'0 0.5
2018-Feb-13 02:29N 37°55' W 122°25'0 0.0
2018-Feb-13 01:59N 37°55' W 122°25'0 0.0
2018-Feb-13 01:29N 37°55' W 122°25'0 0.0
2018-Feb-13 00:59N 37°55' W 122°25'0 0.0
2018-Feb-13 00:29N 37°55' W 122°25'0 0.0
2018-Feb-12 23:59N 37°55' W 122°25'0 0.0
2018-Feb-12 23:29N 37°55' W 122°25'0 0.0
2018-Feb-12 22:59N 37°55' W 122°25'0 0.0
2018-Feb-12 22:30N 37°55' W 122°25'3 6.7
2018-Feb-12 22:00N 37°52' W 122°24'510.4
2018-Feb-12 21:30N 37°47' W 122°22'2 3.3
2018-Feb-12 21:00N 37°46' W 122°21'0 0.0
2018-Feb-12 20:30N 37°46' W 122°21'0 0.0
2018-Feb-12 20:00N 37°46' W 122°21'2 3.2
2018-Feb-12 19:30N 37°47' W 122°22'2 4.3
2018-Feb-12 19:00N 37°49' W 122°22'0 0.1
2018-Feb-12 18:30N 37°49' W 122°22'4 8.8
2018-Feb-12 18:00N 37°53' W 122°25'2 4.5
2018-Feb-12 17:30N 37°54' W 122°22'3 5.2
2018-Feb-12 17:00N 37°52' W 122°24'510.3
2018-Feb-12 16:30N 37°48' W 122°20'2 4.3
2018-Feb-12 16:00N 37°47' W 122°17'0 0.0
2018-Feb-12 15:30N 37°47' W 122°17'0 0.5
2018-Feb-12 14:58N 37°48' W 122°17'0 0.0
2018-Feb-12 14:28N 37°48' W 122°17'0 0.0
2018-Feb-12 13:58N 37°48' W 122°17'0 0.0
2018-Feb-12 13:28N 37°48' W 122°17'0 0.0
2018-Feb-12 13:00N 37°48' W 122°17'0 0.6
2018-Feb-12 12:30N 37°47' W 122°17'0 0.6
2018-Feb-12 12:00N 37°48' W 122°18'2 3.7
2018-Feb-12 11:30N 37°49' W 122°20'1 1.8
2018-Feb-12 11:00N 37°49' W 122°19'2 3.6
2018-Feb-12 10:30N 37°48' W 122°21'1 2.2
2018-Feb-12 10:00N 37°48' W 122°19'0 0.1
2018-Feb-12 09:30N 37°48' W 122°19'1 2.2
2018-Feb-12 09:00N 37°48' W 122°21'0 0.0
2018-Feb-12 08:26N 37°48' W 122°21'0 0.1
2018-Feb-12 08:01N 37°48' W 122°21'0 0.1
2018-Feb-12 07:25N 37°48' W 122°21'0 0.0
2018-Feb-12 06:58N 37°48' W 122°21'2 4.4
2018-Feb-12 06:31N 37°48' W 122°18'1 1.0
2018-Feb-12 06:00N 37°48' W 122°17'0 0.3
2018-Feb-12 05:30N 37°48' W 122°18'4 7.8
2018-Feb-12 05:00N 37°50' W 122°22'4 7.7
2018-Feb-12 04:30N 37°53' W 122°24'3 5.4
2018-Feb-12 04:00N 37°56' W 122°25'0 0.2
2018-Feb-12 03:30N 37°56' W 122°25'1 1.2
2018-Feb-12 03:00N 37°55' W 122°25'2 3.6
2018-Feb-12 02:30N 37°53' W 122°25'2 3.3
2018-Feb-12 02:00N 37°52' W 122°24'2 3.6
2018-Feb-12 01:30N 37°50' W 122°22'4 7.4
2018-Feb-12 01:00N 37°48' W 122°19'0 0.0
2018-Feb-12 00:30N 37°48' W 122°19'1 2.9
2018-Feb-12 00:01N 37°48' W 122°17'1 2.4
2018-Feb-11 23:30N 37°48' W 122°19'4 7.4
2018-Feb-11 23:00N 37°49' W 122°23'1 2.7
2018-Feb-11 22:30N 37°50' W 122°24'2 3.4
2018-Feb-11 21:58N 37°49' W 122°22'0 0.0
2018-Feb-11 21:25N 37°49' W 122°22'0 0.0
2018-Feb-11 20:52N 37°49' W 122°22'0 0.0
2018-Feb-11 20:28N 37°49' W 122°22'0 0.0
2018-Feb-11 19:58N 37°49' W 122°22'0 0.1
2018-Feb-11 19:31N 37°49' W 122°22'3 5.4
2018-Feb-11 19:01N 37°48' W 122°19'1 1.1
2018-Feb-11 18:30N 37°48' W 122°18'0 0.5
2018-Feb-11 18:00N 37°48' W 122°18'611.0
2018-Feb-11 17:30N 37°52' W 122°23'4 6.9
2018-Feb-11 17:00N 37°55' W 122°25'2 4.8
2018-Feb-11 16:30N 37°55' W 122°22'1 1.3
2018-Feb-11 16:00N 37°55' W 122°22'1 1.2
2018-Feb-11 15:30N 37°55' W 122°22'1 1.0
2018-Feb-11 14:57N 37°54' W 122°22'0 0.0
2018-Feb-11 14:30N 37°54' W 122°22'0 0.0
2018-Feb-11 14:00N 37°54' W 122°22'0 0.0
2018-Feb-11 13:30N 37°54' W 122°22'0 0.0
2018-Feb-11 13:00N 37°54' W 122°22'0 0.0
2018-Feb-11 12:27N 37°54' W 122°22'0 0.0
2018-Feb-11 11:57N 37°54' W 122°22'0 0.0
2018-Feb-11 11:27N 37°54' W 122°22'0 0.0
2018-Feb-11 11:00N 37°54' W 122°22'0 0.0
2018-Feb-11 10:30N 37°54' W 122°22'0 0.0
2018-Feb-11 10:00N 37°54' W 122°22'0 0.0
2018-Feb-11 09:30N 37°54' W 122°22'0 0.0
2018-Feb-11 08:57N 37°54' W 122°22'0 0.0
2018-Feb-11 08:27N 37°54' W 122°22'0 1.1
2018-Feb-11 08:00N 37°54' W 122°23'2 3.3
2018-Feb-11 07:30N 37°55' W 122°25'0 0.1
2018-Feb-11 07:00N 37°55' W 122°25'0 0.1
2018-Feb-11 06:30N 37°55' W 122°25'0 0.2
2018-Feb-11 06:00N 37°55' W 122°25'1 2.3
2018-Feb-11 05:30N 37°54' W 122°25'4 8.9
2018-Feb-11 05:00N 37°50' W 122°24'5 9.4
2018-Feb-11 04:30N 37°48' W 122°30'1 1.5
2018-Feb-11 04:00N 37°48' W 122°31'1 2.0
2018-Feb-11 03:30N 37°48' W 122°30'0 0.1
2018-Feb-11 03:00N 37°48' W 122°30'3 5.3
2018-Feb-11 02:30N 37°50' W 122°27'4 7.4
2018-Feb-11 02:00N 37°50' W 122°22'1 2.0
2018-Feb-11 01:30N 37°49' W 122°22'0 0.1
2018-Feb-11 01:00N 37°49' W 122°22'0 0.0
2018-Feb-11 00:30N 37°49' W 122°22'0 0.1
2018-Feb-10 23:51N 37°49' W 122°22'0 0.0
2018-Feb-10 23:30N 37°49' W 122°22'0 0.0
2018-Feb-10 22:57N 37°49' W 122°22'0 0.1
2018-Feb-10 22:30N 37°49' W 122°22'2 4.1
2018-Feb-10 22:00N 37°50' W 122°24'4 7.7
2018-Feb-10 21:30N 37°49' W 122°29'1 2.9
2018-Feb-10 21:00N 37°49' W 122°31'1 2.4
2018-Feb-10 20:30N 37°49' W 122°29'4 8.7
2018-Feb-10 20:00N 37°51' W 122°25'3 5.3
2018-Feb-10 19:30N 37°54' W 122°26'0 0.0
2018-Feb-10 19:00N 37°54' W 122°26'1 3.0
2018-Feb-10 18:30N 37°55' W 122°25'0 0.1
2018-Feb-10 18:00N 37°55' W 122°25'2 3.0
2018-Feb-10 17:29N 37°54' W 122°23'1 1.3
2018-Feb-10 16:58N 37°54' W 122°22'0 0.0
2018-Feb-10 16:19N 37°54' W 122°22'0 0.0
2018-Feb-10 15:55N 37°54' W 122°22'0 0.0
2018-Feb-10 15:25N 37°54' W 122°22'0 0.0
2018-Feb-10 14:55N 37°54' W 122°22'0 0.0
2018-Feb-10 14:28N 37°54' W 122°22'0 0.0
2018-Feb-10 13:58N 37°54' W 122°22'0 0.0
2018-Feb-10 13:22N 37°54' W 122°22'0 0.0
2018-Feb-10 12:55N 37°54' W 122°22'0 0.0
2018-Feb-10 12:25N 37°54' W 122°22'0 0.0
2018-Feb-10 11:55N 37°54' W 122°22'0 0.0
2018-Feb-10 11:28N 37°54' W 122°22'0 0.0
2018-Feb-10 10:55N 37°54' W 122°22'0 0.0
2018-Feb-10 10:25N 37°54' W 122°22'0 0.0
2018-Feb-10 09:58N 37°54' W 122°22'0 0.0
2018-Feb-10 09:22N 37°54' W 122°22'0 0.0
2018-Feb-10 08:55N 37°54' W 122°22'0 0.0
2018-Feb-10 08:25N 37°54' W 122°22'0 0.0
2018-Feb-10 07:55N 37°54' W 122°22'0 0.0
2018-Feb-10 07:28N 37°54' W 122°22'0 0.0
2018-Feb-10 06:55N 37°54' W 122°22'0 0.0
2018-Feb-10 06:25N 37°54' W 122°22'0 0.0
2018-Feb-10 05:58N 37°54' W 122°22'0 0.0
2018-Feb-10 05:25N 37°54' W 122°22'0 0.0
2018-Feb-10 04:55N 37°54' W 122°22'0 0.0
2018-Feb-10 04:28N 37°54' W 122°22'0 0.0
2018-Feb-10 03:55N 37°54' W 122°22'0 0.0
2018-Feb-10 03:25N 37°54' W 122°22'0 0.0
2018-Feb-10 02:46N 37°54' W 122°22'0 0.0
2018-Feb-10 01:19N 37°54' W 122°22'0 0.0
2018-Feb-10 00:58N 37°54' W 122°22'0 0.0
2018-Feb-09 22:55N 37°54' W 122°22'  
Track history (hours):
 
Tides and Currents Weather Stations Pressure Air Temp Water Temp Dewpoint Dewpoint Depression Visibility Wind Speed Wind Dir Waves Ship Positions

Delta Lindsey

Owner: Baydelta Navigation, Inc., San Francisco, CA. More information available from US FCC via Universal Licensing System and Coast Guard Vessel Documentation Center.

Last reported at 2018-Feb-18 07:00 UTC. Time now 2018-Feb-18 07:20 UTC.
Position N 37°54' W 122°22'.

MMSI: 233246442.

Date/timePositionNaut miles runAvg speedWind from/ knotsBaromVisibWave heightAir tempDewpointWater temp
2018-Feb-18 07:00N 37°54' W 122°22'0 0.0
2018-Feb-18 06:30N 37°54' W 122°22'0 0.0
2018-Feb-18 06:00N 37°54' W 122°22'0 0.0
2018-Feb-18 05:30N 37°54' W 122°22'0 0.0
2018-Feb-18 05:00N 37°54' W 122°22'0 0.0
2018-Feb-18 04:30N 37°54' W 122°22'0 0.0
2018-Feb-18 04:00N 37°54' W 122°22'0 0.0
2018-Feb-18 03:30N 37°54' W 122°22'0 0.0
2018-Feb-18 03:00N 37°54' W 122°22'0 0.0
2018-Feb-18 02:30N 37°54' W 122°22'0 0.0
2018-Feb-18 02:00N 37°54' W 122°22'0 0.0
2018-Feb-18 01:27N 37°54' W 122°22'0 0.0
2018-Feb-18 01:00N 37°54' W 122°22'0 0.0
2018-Feb-18 00:30N 37°54' W 122°22'0 0.0
2018-Feb-18 00:00N 37°54' W 122°22'0 0.2
2018-Feb-17 23:30N 37°54' W 122°22'0 0.8
2018-Feb-17 23:00N 37°54' W 122°23'2 4.7
2018-Feb-17 22:30N 37°52' W 122°24'4 8.6
2018-Feb-17 22:00N 37°48' W 122°22'4 8.7
2018-Feb-17 21:30N 37°44' W 122°20'1 1.1
2018-Feb-17 21:00N 37°44' W 122°20'0 0.0
2018-Feb-17 20:30N 37°44' W 122°20'0 0.0
2018-Feb-17 20:00N 37°44' W 122°20'0 0.0
2018-Feb-17 19:30N 37°44' W 122°20'0 0.0
2018-Feb-17 18:57N 37°44' W 122°20'0 0.0
2018-Feb-17 18:30N 37°44' W 122°20'0 0.0
2018-Feb-17 17:57N 37°44' W 122°20'0 0.0
2018-Feb-17 17:30N 37°44' W 122°20'0 0.0
2018-Feb-17 17:00N 37°44' W 122°20'0 0.0
2018-Feb-17 16:30N 37°44' W 122°20'0 0.2
2018-Feb-17 16:00N 37°44' W 122°20'0 0.2
2018-Feb-17 15:30N 37°44' W 122°20'1 2.2
2018-Feb-17 15:01N 37°45' W 122°20'4 8.6
2018-Feb-17 14:30N 37°49' W 122°21'0 0.5
2018-Feb-17 14:00N 37°49' W 122°22'2 4.4
2018-Feb-17 13:30N 37°51' W 122°23'3 6.6
2018-Feb-17 13:00N 37°54' W 122°23'1 1.4
2018-Feb-17 12:29N 37°54' W 122°22'0 0.0
2018-Feb-17 11:59N 37°54' W 122°22'0 0.0
2018-Feb-17 11:29N 37°54' W 122°22'0 0.0
2018-Feb-17 10:59N 37°54' W 122°22'3 5.3
2018-Feb-17 10:31N 37°55' W 122°25'1 1.5
2018-Feb-17 10:00N 37°56' W 122°25'0 0.2
2018-Feb-17 09:30N 37°55' W 122°25'2 4.7
2018-Feb-17 09:00N 37°54' W 122°22'0 0.0
2018-Feb-17 08:30N 37°54' W 122°22'0 0.1
2018-Feb-17 08:00N 37°54' W 122°22'0 0.1
2018-Feb-17 07:30N 37°54' W 122°22'0 0.1
2018-Feb-17 07:00N 37°54' W 122°22'0 0.1
2018-Feb-17 06:30N 37°54' W 122°22'0 0.1
2018-Feb-17 06:00N 37°54' W 122°22'0 0.0
2018-Feb-17 05:30N 37°54' W 122°22'0 0.1
2018-Feb-17 05:00N 37°54' W 122°22'0 0.0
2018-Feb-17 04:30N 37°54' W 122°22'0 0.1
2018-Feb-17 04:00N 37°54' W 122°22'2 4.6
2018-Feb-17 03:30N 37°53' W 122°24'510.7
2018-Feb-17 03:00N 37°48' W 122°21'2 4.5
2018-Feb-17 02:31N 37°47' W 122°18'0 0.4
2018-Feb-17 02:01N 37°48' W 122°18'1 2.0
2018-Feb-17 01:30N 37°48' W 122°19'0 0.1
2018-Feb-17 01:00N 37°48' W 122°19'1 1.4
2018-Feb-17 00:30N 37°48' W 122°18'1 2.7
2018-Feb-17 00:00N 37°48' W 122°20'4 8.6
2018-Feb-16 23:30N 37°51' W 122°24'3 6.3
2018-Feb-16 23:00N 37°54' W 122°23'1 2.2
2018-Feb-16 22:30N 37°55' W 122°22'0 0.6
2018-Feb-16 22:00N 37°55' W 122°22'1 1.7
2018-Feb-16 21:30N 37°54' W 122°22'0 0.3
2018-Feb-16 20:58N 37°54' W 122°22'0 0.1
2018-Feb-16 20:31N 37°54' W 122°22'0 0.1
2018-Feb-16 20:01N 37°54' W 122°22'0 0.1
2018-Feb-16 19:28N 37°54' W 122°22'0 0.1
2018-Feb-16 19:01N 37°54' W 122°22'0 0.1
2018-Feb-16 18:31N 37°54' W 122°22'0 0.0
2018-Feb-16 18:01N 37°54' W 122°22'0 0.0
2018-Feb-16 17:28N 37°54' W 122°22'0 0.1
2018-Feb-16 16:58N 37°54' W 122°22'0 0.1
2018-Feb-16 16:31N 37°54' W 122°22'0 0.0
2018-Feb-16 16:00N 37°54' W 122°22'0 0.1
2018-Feb-16 15:30N 37°54' W 122°22'2 4.5
2018-Feb-16 15:00N 37°53' W 122°24'510.5
2018-Feb-16 14:31N 37°48' W 122°22'4 8.4
2018-Feb-16 14:00N 37°44' W 122°20'2 3.2
2018-Feb-16 13:31N 37°45' W 122°22'5 9.1
2018-Feb-16 13:00N 37°49' W 122°24'510.9
2018-Feb-16 12:31N 37°54' W 122°27'611.8
2018-Feb-16 12:01N 37°60' W 122°25'611.0
2018-Feb-16 11:31N 38°03' W 122°19'7 9.6
2018-Feb-16 10:50N 38°03' W 122°11'2 7.3
2018-Feb-16 10:30N 38°02' W 122°08'0 0.6
2018-Feb-16 10:01N 38°02' W 122°08'0 0.6
2018-Feb-16 09:30N 38°02' W 122°08'3 5.5
2018-Feb-16 08:58N 38°03' W 122°11'612.1
2018-Feb-16 08:30N 38°03' W 122°18'611.9
2018-Feb-16 08:00N 38°00' W 122°25'510.9
2018-Feb-16 07:31N 37°55' W 122°24'2 3.2
2018-Feb-16 07:00N 37°54' W 122°22'0 0.0
2018-Feb-16 06:30N 37°54' W 122°22'0 0.0
2018-Feb-16 06:00N 37°54' W 122°22'0 0.0
2018-Feb-16 05:30N 37°54' W 122°22'0 0.0
2018-Feb-16 05:00N 37°54' W 122°22'0 0.0
2018-Feb-16 04:30N 37°54' W 122°22'0 0.0
2018-Feb-16 04:00N 37°54' W 122°22'0 0.0
2018-Feb-16 03:30N 37°54' W 122°22'0 0.0
2018-Feb-16 03:00N 37°54' W 122°22'1 1.9
2018-Feb-16 02:30N 37°54' W 122°24'3 6.6
2018-Feb-16 02:00N 37°51' W 122°23'5 9.2
2018-Feb-16 01:30N 37°48' W 122°19'0 0.2
2018-Feb-16 01:00N 37°48' W 122°19'0 0.1
2018-Feb-16 00:30N 37°48' W 122°19'0 0.1
2018-Feb-16 00:00N 37°48' W 122°19'1 1.7
2018-Feb-15 23:30N 37°48' W 122°20'4 8.2
2018-Feb-15 23:00N 37°51' W 122°24'3 6.4
2018-Feb-15 22:30N 37°54' W 122°23'1 1.5
2018-Feb-15 22:00N 37°54' W 122°22'0 0.0
2018-Feb-15 21:30N 37°54' W 122°22'0 0.3
2018-Feb-15 21:00N 37°54' W 122°22'3 5.3
2018-Feb-15 20:30N 37°55' W 122°26'0 1.0
2018-Feb-15 20:00N 37°54' W 122°26'1 1.4
2018-Feb-15 19:30N 37°54' W 122°26'3 5.0
2018-Feb-15 18:59N 37°54' W 122°22'0 0.0
2018-Feb-15 18:29N 37°54' W 122°22'0 0.0
2018-Feb-15 17:59N 37°54' W 122°22'0 0.0
2018-Feb-15 17:29N 37°54' W 122°22'2 4.2
2018-Feb-15 16:59N 37°55' W 122°25'0 0.0
2018-Feb-15 16:29N 37°55' W 122°25'0 0.0
2018-Feb-15 15:59N 37°55' W 122°25'0 0.0
2018-Feb-15 15:29N 37°55' W 122°25'0 0.0
2018-Feb-15 14:53N 37°55' W 122°25'0 0.8
2018-Feb-15 14:31N 37°55' W 122°25'0 0.6
2018-Feb-15 13:58N 37°55' W 122°25'0 0.4
2018-Feb-15 13:26N 37°55' W 122°25'0 0.0
2018-Feb-15 12:59N 37°55' W 122°25'0 0.0
2018-Feb-15 12:29N 37°55' W 122°25'0 0.0
2018-Feb-15 11:50N 37°55' W 122°25'0 0.0
2018-Feb-15 11:29N 37°55' W 122°25'0 0.0
2018-Feb-15 10:59N 37°55' W 122°25'0 0.0
2018-Feb-15 10:26N 37°55' W 122°25'0 0.0
2018-Feb-15 09:59N 37°55' W 122°25'0 0.0
2018-Feb-15 09:29N 37°55' W 122°25'0 0.0
2018-Feb-15 08:53N 37°55' W 122°25'0 0.0
2018-Feb-15 08:29N 37°55' W 122°25'3 5.4
2018-Feb-15 08:00N 37°58' W 122°26'5 9.3
2018-Feb-15 07:30N 38°02' W 122°23'6 9.7
2018-Feb-15 06:56N 38°04' W 122°16'6 9.6
2018-Feb-15 06:16N 38°02' W 122°08'0 0.6
2018-Feb-15 06:00N 38°02' W 122°08'4 7.4
2018-Feb-15 05:27N 38°04' W 122°13'510.7
2018-Feb-15 05:00N 38°03' W 122°19'611.1
2018-Feb-15 04:29N 38°00' W 122°25'510.7
2018-Feb-15 03:59N 37°55' W 122°24'2 3.6
2018-Feb-15 03:27N 37°55' W 122°22'0 0.0
2018-Feb-15 02:59N 37°55' W 122°22'0 0.5
2018-Feb-15 02:30N 37°55' W 122°22'1 1.5
2018-Feb-15 02:00N 37°54' W 122°22'3 4.9
2018-Feb-15 01:29N 37°55' W 122°25'2 4.6
2018-Feb-15 01:00N 37°53' W 122°25'0 0.0
2018-Feb-15 00:30N 37°53' W 122°25'1 3.0
2018-Feb-15 00:00N 37°54' W 122°25'1 2.9
2018-Feb-14 23:30N 37°54' W 122°23'1 1.8
2018-Feb-14 23:00N 37°54' W 122°22'0 0.0
2018-Feb-14 22:30N 37°54' W 122°22'0 0.0
2018-Feb-14 22:00N 37°54' W 122°22'0 0.0
2018-Feb-14 21:30N 37°54' W 122°22'1 1.8
2018-Feb-14 21:00N 37°55' W 122°22'0 0.4
2018-Feb-14 20:30N 37°55' W 122°22'1 1.8
2018-Feb-14 20:00N 37°54' W 122°22'2 4.9
2018-Feb-14 19:30N 37°55' W 122°25'2 3.8
2018-Feb-14 19:00N 37°53' W 122°25'1 2.2
2018-Feb-14 18:30N 37°54' W 122°25'1 1.8
2018-Feb-14 18:00N 37°54' W 122°24'2 3.0
2018-Feb-14 17:30N 37°54' W 122°22'0 0.4
2018-Feb-14 17:00N 37°54' W 122°22'1 1.7
2018-Feb-14 16:30N 37°55' W 122°22'1 1.1
2018-Feb-14 16:01N 37°55' W 122°22'0 0.0
2018-Feb-14 15:30N 37°55' W 122°22'0 0.0
2018-Feb-14 15:00N 37°55' W 122°22'0 0.0
2018-Feb-14 14:30N 37°55' W 122°22'0 0.0
2018-Feb-14 14:00N 37°55' W 122°22'0 0.0
2018-Feb-14 13:30N 37°55' W 122°22'0 0.0
2018-Feb-14 13:00N 37°55' W 122°22'0 0.0
2018-Feb-14 12:30N 37°55' W 122°22'0 0.0
2018-Feb-14 12:00N 37°55' W 122°22'0 0.0
2018-Feb-14 11:31N 37°55' W 122°22'0 0.5
2018-Feb-14 11:00N 37°54' W 122°22'2 4.4
2018-Feb-14 10:30N 37°55' W 122°24'510.6
2018-Feb-14 10:00N 38°00' W 122°25'510.5
2018-Feb-14 09:30N 38°03' W 122°19'7 9.6
2018-Feb-14 08:49N 38°03' W 122°11'2 8.1
2018-Feb-14 08:30N 38°02' W 122°08'0 0.2
2018-Feb-14 08:00N 38°02' W 122°08'0 0.0
2018-Feb-14 07:30N 38°02' W 122°08'0 0.6
2018-Feb-14 06:59N 38°02' W 122°08'2 4.3
2018-Feb-14 06:30N 38°03' W 122°11'4 7.1
2018-Feb-14 06:00N 38°04' W 122°15'4 7.5
2018-Feb-14 05:30N 38°03' W 122°20'5 9.4
2018-Feb-14 05:00N 38°00' W 122°24'611.3
2018-Feb-14 04:30N 37°55' W 122°27'510.5
2018-Feb-14 04:00N 37°50' W 122°24'4 8.5
2018-Feb-14 03:30N 37°47' W 122°21'3 5.4
2018-Feb-14 03:01N 37°44' W 122°20'0 0.3
2018-Feb-14 02:30N 37°44' W 122°20'3 6.5
2018-Feb-14 02:00N 37°47' W 122°21'2 3.8
2018-Feb-14 01:30N 37°49' W 122°22'0 0.0
2018-Feb-14 01:00N 37°49' W 122°22'0 0.0
2018-Feb-14 00:30N 37°49' W 122°22'0 0.0
2018-Feb-14 00:00N 37°49' W 122°22'0 0.1
2018-Feb-13 23:30N 37°49' W 122°22'0 0.1
2018-Feb-13 23:00N 37°49' W 122°22'3 5.8
2018-Feb-13 22:30N 37°46' W 122°22'1 1.1
2018-Feb-13 22:00N 37°46' W 122°21'1 2.5
2018-Feb-13 21:30N 37°47' W 122°22'2 4.1
2018-Feb-13 21:00N 37°49' W 122°23'4 7.3
2018-Feb-13 20:30N 37°49' W 122°28'3 6.5
2018-Feb-13 20:00N 37°49' W 122°32'1 1.0
2018-Feb-13 19:30N 37°49' W 122°31'0 0.8
2018-Feb-13 19:00N 37°49' W 122°31'0 0.9
2018-Feb-13 18:30N 37°49' W 122°31'1 2.7
2018-Feb-13 18:01N 37°49' W 122°29'3 6.6
2018-Feb-13 17:30N 37°52' W 122°27'4 7.6
2018-Feb-13 17:00N 37°54' W 122°23'1 1.5
2018-Feb-13 16:30N 37°54' W 122°22'0 0.0
2018-Feb-13 15:59N 37°54' W 122°22'0 0.0
2018-Feb-13 15:29N 37°54' W 122°22'0 0.0
2018-Feb-13 14:59N 37°54' W 122°22'0 0.0
2018-Feb-13 14:29N 37°54' W 122°22'0 0.0
2018-Feb-13 13:56N 37°54' W 122°22'0 0.0
2018-Feb-13 13:29N 37°54' W 122°22'0 0.0
2018-Feb-13 12:59N 37°54' W 122°22'0 0.0
2018-Feb-13 12:29N 37°54' W 122°22'0 0.0
2018-Feb-13 11:41N 37°54' W 122°22'0 0.0
2018-Feb-13 11:20N 37°54' W 122°22'0 0.0
2018-Feb-13 10:59N 37°54' W 122°22'0 0.0
2018-Feb-13 10:23N 37°54' W 122°22'0 0.0
2018-Feb-13 09:56N 37°54' W 122°22'0 0.0
2018-Feb-13 09:29N 37°54' W 122°22'0 0.0
2018-Feb-13 08:59N 37°54' W 122°22'0 0.0
2018-Feb-13 08:29N 37°54' W 122°22'0 0.0
2018-Feb-13 07:53N 37°54' W 122°22'0 0.0
2018-Feb-13 07:29N 37°54' W 122°22'0 0.0
2018-Feb-13 06:59N 37°54' W 122°22'0 0.0
2018-Feb-13 06:31N 37°54' W 122°22'2 4.5
2018-Feb-13 06:01N 37°55' W 122°25'0 0.1
2018-Feb-13 05:30N 37°55' W 122°25'2 4.4
2018-Feb-13 05:01N 37°53' W 122°25'0 0.1
2018-Feb-13 04:30N 37°53' W 122°25'1 3.0
2018-Feb-13 04:00N 37°55' W 122°25'1 1.9
2018-Feb-13 03:30N 37°56' W 122°25'0 0.2
2018-Feb-13 03:00N 37°55' W 122°25'0 0.5
2018-Feb-13 02:29N 37°55' W 122°25'0 0.0
2018-Feb-13 01:59N 37°55' W 122°25'0 0.0
2018-Feb-13 01:29N 37°55' W 122°25'0 0.0
2018-Feb-13 00:59N 37°55' W 122°25'0 0.0
2018-Feb-13 00:29N 37°55' W 122°25'0 0.0
2018-Feb-12 23:59N 37°55' W 122°25'0 0.0
2018-Feb-12 23:29N 37°55' W 122°25'0 0.0
2018-Feb-12 22:59N 37°55' W 122°25'0 0.0
2018-Feb-12 22:30N 37°55' W 122°25'3 6.7
2018-Feb-12 22:00N 37°52' W 122°24'510.4
2018-Feb-12 21:30N 37°47' W 122°22'2 3.3
2018-Feb-12 21:00N 37°46' W 122°21'0 0.0
2018-Feb-12 20:30N 37°46' W 122°21'0 0.0
2018-Feb-12 20:00N 37°46' W 122°21'2 3.2
2018-Feb-12 19:30N 37°47' W 122°22'2 4.3
2018-Feb-12 19:00N 37°49' W 122°22'0 0.1
2018-Feb-12 18:30N 37°49' W 122°22'4 8.8
2018-Feb-12 18:00N 37°53' W 122°25'2 4.5
2018-Feb-12 17:30N 37°54' W 122°22'3 5.2
2018-Feb-12 17:00N 37°52' W 122°24'510.3
2018-Feb-12 16:30N 37°48' W 122°20'2 4.3
2018-Feb-12 16:00N 37°47' W 122°17'0 0.0
2018-Feb-12 15:30N 37°47' W 122°17'0 0.5
2018-Feb-12 14:58N 37°48' W 122°17'0 0.0
2018-Feb-12 14:28N 37°48' W 122°17'0 0.0
2018-Feb-12 13:58N 37°48' W 122°17'0 0.0
2018-Feb-12 13:28N 37°48' W 122°17'0 0.0
2018-Feb-12 13:00N 37°48' W 122°17'0 0.6
2018-Feb-12 12:30N 37°47' W 122°17'0 0.6
2018-Feb-12 12:00N 37°48' W 122°18'2 3.7
2018-Feb-12 11:30N 37°49' W 122°20'1 1.8
2018-Feb-12 11:00N 37°49' W 122°19'2 3.6
2018-Feb-12 10:30N 37°48' W 122°21'1 2.2
2018-Feb-12 10:00N 37°48' W 122°19'0 0.1
2018-Feb-12 09:30N 37°48' W 122°19'1 2.2
2018-Feb-12 09:00N 37°48' W 122°21'0 0.0
2018-Feb-12 08:26N 37°48' W 122°21'0 0.1
2018-Feb-12 08:01N 37°48' W 122°21'0 0.1
2018-Feb-12 07:25N 37°48' W 122°21'0 0.0
2018-Feb-12 06:58N 37°48' W 122°21'2 4.4
2018-Feb-12 06:31N 37°48' W 122°18'1 1.0
2018-Feb-12 06:00N 37°48' W 122°17'0 0.3
2018-Feb-12 05:30N 37°48' W 122°18'4 7.8
2018-Feb-12 05:00N 37°50' W 122°22'4 7.7
2018-Feb-12 04:30N 37°53' W 122°24'3 5.4
2018-Feb-12 04:00N 37°56' W 122°25'0 0.2
2018-Feb-12 03:30N 37°56' W 122°25'1 1.2
2018-Feb-12 03:00N 37°55' W 122°25'2 3.6
2018-Feb-12 02:30N 37°53' W 122°25'2 3.3
2018-Feb-12 02:00N 37°52' W 122°24'2 3.6
2018-Feb-12 01:30N 37°50' W 122°22'4 7.4
2018-Feb-12 01:00N 37°48' W 122°19'0 0.0
2018-Feb-12 00:30N 37°48' W 122°19'1 2.9
2018-Feb-12 00:01N 37°48' W 122°17'1 2.4
2018-Feb-11 23:30N 37°48' W 122°19'4 7.4
2018-Feb-11 23:00N 37°49' W 122°23'1 2.7
2018-Feb-11 22:30N 37°50' W 122°24'2 3.4
2018-Feb-11 21:58N 37°49' W 122°22'0 0.0
2018-Feb-11 21:25N 37°49' W 122°22'0 0.0
2018-Feb-11 20:52N 37°49' W 122°22'0 0.0
2018-Feb-11 20:28N 37°49' W 122°22'0 0.0
2018-Feb-11 19:58N 37°49' W 122°22'0 0.1
2018-Feb-11 19:31N 37°49' W 122°22'3 5.4
2018-Feb-11 19:01N 37°48' W 122°19'1 1.1
2018-Feb-11 18:30N 37°48' W 122°18'0 0.5
2018-Feb-11 18:00N 37°48' W 122°18'611.0
2018-Feb-11 17:30N 37°52' W 122°23'4 6.9
2018-Feb-11 17:00N 37°55' W 122°25'2 4.8
2018-Feb-11 16:30N 37°55' W 122°22'1 1.3
2018-Feb-11 16:00N 37°55' W 122°22'1 1.2
2018-Feb-11 15:30N 37°55' W 122°22'1 1.0
2018-Feb-11 14:57N 37°54' W 122°22'0 0.0
2018-Feb-11 14:30N 37°54' W 122°22'0 0.0
2018-Feb-11 14:00N 37°54' W 122°22'0 0.0
2018-Feb-11 13:30N 37°54' W 122°22'0 0.0
2018-Feb-11 13:00N 37°54' W 122°22'0 0.0
2018-Feb-11 12:27N 37°54' W 122°22'0 0.0
2018-Feb-11 11:57N 37°54' W 122°22'0 0.0
2018-Feb-11 11:27N 37°54' W 122°22'0 0.0
2018-Feb-11 11:00N 37°54' W 122°22'0 0.0
2018-Feb-11 10:30N 37°54' W 122°22'0 0.0
2018-Feb-11 10:00N 37°54' W 122°22'0 0.0
2018-Feb-11 09:30N 37°54' W 122°22'0 0.0
2018-Feb-11 08:57N 37°54' W 122°22'0 0.0
2018-Feb-11 08:27N 37°54' W 122°22'0 1.1
2018-Feb-11 08:00N 37°54' W 122°23'2 3.3
2018-Feb-11 07:30N 37°55' W 122°25'0 0.1
2018-Feb-11 07:00N 37°55' W 122°25'0 0.1
2018-Feb-11 06:30N 37°55' W 122°25'0 0.2
2018-Feb-11 06:00N 37°55' W 122°25'1 2.3
2018-Feb-11 05:30N 37°54' W 122°25'4 8.9
2018-Feb-11 05:00N 37°50' W 122°24'5 9.4
2018-Feb-11 04:30N 37°48' W 122°30'1 1.5
2018-Feb-11 04:00N 37°48' W 122°31'1 2.0
2018-Feb-11 03:30N 37°48' W 122°30'0 0.1
2018-Feb-11 03:00N 37°48' W 122°30'3 5.3
2018-Feb-11 02:30N 37°50' W 122°27'4 7.4
2018-Feb-11 02:00N 37°50' W 122°22'1 2.0
2018-Feb-11 01:30N 37°49' W 122°22'0 0.1
2018-Feb-11 01:00N 37°49' W 122°22'0 0.0
2018-Feb-11 00:30N 37°49' W 122°22'0 0.1
2018-Feb-10 23:51N 37°49' W 122°22'0 0.0
2018-Feb-10 23:30N 37°49' W 122°22'0 0.0
2018-Feb-10 22:57N 37°49' W 122°22'0 0.1
2018-Feb-10 22:30N 37°49' W 122°22'2 4.1
2018-Feb-10 22:00N 37°50' W 122°24'4 7.7
2018-Feb-10 21:30N 37°49' W 122°29'1 2.9
2018-Feb-10 21:00N 37°49' W 122°31'1 2.4
2018-Feb-10 20:30N 37°49' W 122°29'4 8.7
2018-Feb-10 20:00N 37°51' W 122°25'3 5.3
2018-Feb-10 19:30N 37°54' W 122°26'0 0.0
2018-Feb-10 19:00N 37°54' W 122°26'1 3.0
2018-Feb-10 18:30N 37°55' W 122°25'0 0.1
2018-Feb-10 18:00N 37°55' W 122°25'2 3.0
2018-Feb-10 17:29N 37°54' W 122°23'1 1.3
2018-Feb-10 16:58N 37°54' W 122°22'0 0.0
2018-Feb-10 16:19N 37°54' W 122°22'0 0.0
2018-Feb-10 15:55N 37°54' W 122°22'0 0.0
2018-Feb-10 15:25N 37°54' W 122°22'0 0.0
2018-Feb-10 14:55N 37°54' W 122°22'0 0.0
2018-Feb-10 14:28N 37°54' W 122°22'0 0.0
2018-Feb-10 13:58N 37°54' W 122°22'0 0.0
2018-Feb-10 13:22N 37°54' W 122°22'0 0.0
2018-Feb-10 12:55N 37°54' W 122°22'0 0.0
2018-Feb-10 12:25N 37°54' W 122°22'0 0.0
2018-Feb-10 11:55N 37°54' W 122°22'0 0.0
2018-Feb-10 11:28N 37°54' W 122°22'0 0.0
2018-Feb-10 10:55N 37°54' W 122°22'0 0.0
2018-Feb-10 10:25N 37°54' W 122°22'0 0.0
2018-Feb-10 09:58N 37°54' W 122°22'0 0.0
2018-Feb-10 09:22N 37°54' W 122°22'0 0.0
2018-Feb-10 08:55N 37°54' W 122°22'0 0.0
2018-Feb-10 08:25N 37°54' W 122°22'0 0.0
2018-Feb-10 07:55N 37°54' W 122°22'0 0.0
2018-Feb-10 07:28N 37°54' W 122°22'0 0.0
2018-Feb-10 06:55N 37°54' W 122°22'0 0.0
2018-Feb-10 06:25N 37°54' W 122°22'0 0.0
2018-Feb-10 05:58N 37°54' W 122°22'0 0.0
2018-Feb-10 05:25N 37°54' W 122°22'0 0.0
2018-Feb-10 04:55N 37°54' W 122°22'0 0.0
2018-Feb-10 04:28N 37°54' W 122°22'0 0.0
2018-Feb-10 03:55N 37°54' W 122°22'0 0.0
2018-Feb-10 03:25N 37°54' W 122°22'0 0.0
2018-Feb-10 02:46N 37°54' W 122°22'0 0.0
2018-Feb-10 01:19N 37°54' W 122°22'0 0.0
2018-Feb-10 00:58N 37°54' W 122°22'0 0.0
2018-Feb-09 22:55N 37°54' W 122°22'  

Dump ship's entire track history